Time;durP1;ratioP1;P1;durP2;ratioP2;P2;SDS_P1;SDS_P2;PMS_P1;PMS_P2;Temp;Humidity;BMP_temperature;BMP_pressure;BME280_temperature;BME280_humidity;BME280_pressure;Samples;Min_cycle;Max_cycle;Signal;HPM_P1;HPM_P2
2023/11/07 00:03:38;;;;;;;3.55;0.98;;;;;;;10.50;89.24;99594.44;10200626;28;20347;-65
2023/11/07 00:08:39;;;;;;;3.47;0.80;;;;;;;10.43;89.62;99602.97;10199852;28;20547;-65
2023/11/07 00:13:42;;;;;;;4.10;0.75;;;;;;;10.48;89.98;99607.00;10198796;28;20059;-65
2023/11/07 00:18:44;;;;;;;0.93;0.60;;;;;;;10.47;89.55;99614.16;10199363;28;20126;-64
2023/11/07 00:23:47;;;;;;;1.77;0.90;;;;;;;10.49;89.42;99620.19;10200116;28;20182;-65
2023/11/07 00:28:48;;;;;;;2.05;0.75;;;;;;;10.46;89.43;99617.78;10204382;28;20197;-63
2023/11/07 00:33:50;;;;;;;1.48;0.60;;;;;;;10.51;89.37;99617.38;10200883;28;20063;-65
2023/11/07 00:38:52;;;;;;;3.22;0.80;;;;;;;10.50;88.96;99626.38;10189533;28;20055;-65
2023/11/07 00:44:00;;;;;;;4.25;0.98;;;;;;;10.56;88.84;99618.66;10209269;28;20119;-64
2023/11/07 00:49:02;;;;;;;2.65;0.80;;;;;;;10.54;88.38;99623.28;10199192;28;20057;-66
2023/11/07 00:54:04;;;;;;;2.08;0.90;;;;;;;10.55;87.98;99630.28;10218493;28;20644;-65
2023/11/07 00:59:05;;;;;;;2.80;0.50;;;;;;;10.46;87.50;99630.28;10206379;28;20130;-66
2023/11/07 01:04:07;;;;;;;2.70;0.77;;;;;;;10.54;87.87;99631.25;10205653;28;20134;-65
2023/11/07 01:09:12;;;;;;;2.05;0.52;;;;;;;10.56;87.35;99633.78;10205279;28;20701;-65
2023/11/07 01:14:13;;;;;;;5.55;1.17;;;;;;;10.58;86.66;99645.97;10206922;28;20637;-66
2023/11/07 01:19:15;;;;;;;3.45;0.77;;;;;;;10.60;85.98;99649.34;10223441;28;20055;-65
2023/11/07 01:24:17;;;;;;;2.72;0.52;;;;;;;10.59;86.30;99654.81;10203880;28;20142;-65
2023/11/07 01:29:18;;;;;;;2.05;0.80;;;;;;;10.58;85.85;99653.97;10203484;28;20056;-64
2023/11/07 01:34:20;;;;;;;2.80;0.73;;;;;;;10.56;85.42;99652.41;10204656;28;20071;-66
2023/11/07 01:39:21;;;;;;;2.72;0.60;;;;;;;10.54;85.20;99657.88;10205661;28;20074;-64
2023/11/07 01:44:28;;;;;;;3.15;0.80;;;;;;;10.47;84.91;99651.41;10204382;28;20729;-63
2023/11/07 01:49:30;;;;;;;2.38;0.63;;;;;;;10.49;85.19;99659.25;10204318;28;20043;-63
2023/11/07 01:54:33;;;;;;;2.90;0.60;;;;;;;10.55;84.49;99654.25;10203653;28;20517;-65
2023/11/07 01:59:34;;;;;;;1.70;0.63;;;;;;;10.53;84.38;99660.69;10193507;28;20200;-65
2023/11/07 02:04:35;;;;;;;1.52;0.50;;;;;;;10.55;84.28;99654.25;10204765;28;20058;-65
2023/11/07 02:09:38;;;;;;;3.33;0.65;;;;;;;10.56;84.05;99661.22;10214164;28;20062;-65
2023/11/07 02:14:41;;;;;;;1.85;0.50;;;;;;;10.49;83.81;99662.75;10212136;28;20053;-66
2023/11/07 02:19:42;;;;;;;1.15;0.50;;;;;;;10.47;84.27;99669.22;10209664;28;20051;-65
2023/11/07 02:24:43;;;;;;;3.53;0.90;;;;;;;10.55;84.26;99662.22;10207935;28;20126;-65
2023/11/07 02:29:46;;;;;;;2.53;0.70;;;;;;;10.57;84.00;99657.59;10202866;28;20048;-65
2023/11/07 02:34:47;;;;;;;3.15;0.52;;;;;;;10.64;84.20;99657.03;10182839;28;20067;-65
2023/11/07 02:39:49;;;;;;;5.22;0.60;;;;;;;10.70;84.09;99661.81;10197533;28;20624;-64
2023/11/07 02:44:50;;;;;;;2.13;0.80;;;;;;;10.61;83.98;99653.69;10199168;28;20141;-64
2023/11/07 02:49:52;;;;;;;2.25;0.63;;;;;;;10.65;84.45;99658.72;10209326;28;20685;-66
2023/11/07 02:54:53;;;;;;;2.00;0.80;;;;;;;10.58;84.53;99645.97;10201898;28;20055;-64
2023/11/07 02:59:55;;;;;;;3.03;0.57;;;;;;;10.70;84.80;99653.81;10213530;28;20155;-66
2023/11/07 03:04:56;;;;;;;1.70;0.73;;;;;;;10.71;84.50;99659.00;10204172;28;20062;-65
2023/11/07 03:10:00;;;;;;;2.20;0.73;;;;;;;10.66;84.63;99653.28;10203172;28;20055;-66
2023/11/07 03:15:02;;;;;;;1.48;0.50;;;;;;;10.70;85.26;99648.50;10200384;28;20206;-66
2023/11/07 03:20:06;;;;;;;1.25;0.60;;;;;;;10.73;84.83;99642.91;10206618;28;20238;-65
2023/11/07 03:25:09;;;;;;;2.42;0.80;;;;;;;10.69;85.15;99633.50;10199010;28;20065;-65
2023/11/07 03:30:11;;;;;;;1.10;0.38;;;;;;;10.70;85.60;99630.69;10216082;28;20055;-66
2023/11/07 03:35:12;;;;;;;1.02;0.50;;;;;;;10.67;85.01;99633.63;10199211;28;20134;-64
2023/11/07 03:40:14;;;;;;;2.95;0.75;;;;;;;10.70;85.31;99640.50;10200461;28;20079;-66
2023/11/07 03:45:15;;;;;;;0.80;0.40;;;;;;;10.68;85.82;99642.47;10198176;28;20051;-65
2023/11/07 03:50:17;;;;;;;1.20;0.57;;;;;;;10.65;85.38;99648.09;10202167;28;20095;-65
2023/11/07 03:55:18;;;;;;;3.95;0.60;;;;;;;10.74;85.82;99657.91;10198843;28;20150;-64
2023/11/07 04:00:20;;;;;;;2.30;0.73;;;;;;;10.77;84.80;99662.94;10199042;28;20086;-64
2023/11/07 04:05:22;;;;;;;2.15;0.60;;;;;;;10.72;85.17;99654.50;10185779;28;20050;-64
2023/11/07 04:10:24;;;;;;;0.90;0.50;;;;;;;10.71;85.10;99666.16;10199606;28;20055;-65
2023/11/07 04:15:27;;;;;;;1.17;0.45;;;;;;;10.69;84.94;99670.75;10198349;28;20509;-65
2023/11/07 04:20:30;;;;;;;0.95;0.55;;;;;;;10.66;85.25;99663.06;10212575;28;20456;-66
2023/11/07 04:25:32;;;;;;;1.58;0.57;;;;;;;10.66;84.78;99665.72;10211539;28;20079;-65
2023/11/07 04:30:33;;;;;;;1.27;0.60;;;;;;;10.63;85.04;99658.00;10212671;28;20118;-65
2023/11/07 04:35:35;;;;;;;2.30;0.68;;;;;;;10.68;85.02;99672.59;10205027;28;20055;-65
2023/11/07 04:40:40;;;;;;;2.17;0.80;;;;;;;10.65;84.66;99674.72;10215211;28;20138;-65
2023/11/07 04:45:42;;;;;;;2.05;0.80;;;;;;;10.69;84.94;99668.09;10209558;28;20055;-65
2023/11/07 04:50:44;;;;;;;2.55;0.68;;;;;;;10.77;84.49;99657.63;10206276;28;20070;-64
2023/11/07 04:55:46;;;;;;;1.95;0.50;;;;;;;10.77;84.63;99666.44;10206861;28;20142;-65
2023/11/07 05:00:48;;;;;;;3.85;0.90;;;;;;;10.71;85.08;99655.50;10207025;28;20047;-64
2023/11/07 05:05:49;;;;;;;1.88;0.63;;;;;;;10.78;85.42;99653.97;10205922;28;20468;-64
2023/11/07 05:10:51;;;;;;;3.22;1.10;;;;;;;10.74;85.15;99656.06;10205633;28;20055;-65
2023/11/07 05:15:53;;;;;;;3.90;1.10;;;;;;;10.65;85.61;99653.41;10203711;28;20725;-65
2023/11/07 05:20:54;;;;;;;3.55;1.10;;;;;;;10.71;85.83;99661.66;10203967;28;20119;-65
2023/11/07 05:25:57;;;;;;;1.13;0.63;;;;;;;10.73;85.92;99664.19;10202271;28;20107;-66
2023/11/07 05:30:58;;;;;;;2.55;1.42;;;;;;;10.77;85.99;99662.94;10205249;28;20553;-64
2023/11/07 05:36:02;;;;;;;3.40;1.63;;;;;;;10.71;86.19;99663.50;10198309;28;20056;-66
2023/11/07 05:41:04;;;;;;;3.10;1.10;;;;;;;10.66;86.48;99660.41;10203221;28;20835;-65
2023/11/07 05:46:09;;;;;;;2.97;0.75;;;;;;;10.67;86.31;99659.44;10191458;28;20161;-65
2023/11/07 05:51:11;;;;;;;2.47;0.85;;;;;;;10.69;86.09;99654.78;10211123;28;20078;-66
2023/11/07 05:56:13;;;;;;;2.33;1.13;;;;;;;10.69;86.20;99653.00;10205629;28;20543;-67
2023/11/07 06:01:15;;;;;;;2.90;1.65;;;;;;;10.65;85.98;99654.25;10205351;28;20075;-66
2023/11/07 06:06:18;;;;;;;1.80;0.70;;;;;;;10.67;86.29;99662.09;10205347;28;20567;-66
2023/11/07 06:11:20;;;;;;;2.63;1.00;;;;;;;10.70;86.11;99667.13;10176113;28;20070;-65
2023/11/07 06:16:22;;;;;;;2.15;0.73;;;;;;;10.75;86.00;99664.91;10198651;28;20516;-66
2023/11/07 06:21:24;;;;;;;1.80;1.08;;;;;;;10.59;86.11;99660.94;10197738;28;20063;-64
2023/11/07 06:26:28;;;;;;;2.83;0.70;;;;;;;10.46;86.67;99675.50;10200551;28;20081;-66
2023/11/07 06:31:30;;;;;;;2.40;1.63;;;;;;;10.46;87.04;99678.16;10187728;28;20059;-66
2023/11/07 06:36:32;;;;;;;2.78;0.63;;;;;;;10.51;86.88;99679.44;10184217;28;21988;-64
2023/11/07 06:41:34;;;;;;;2.83;0.65;;;;;;;10.46;86.81;99681.66;10207798;28;20051;-65
2023/11/07 06:46:39;;;;;;;2.60;0.80;;;;;;;10.43;87.02;99682.78;10201832;28;20050;-65
2023/11/07 06:51:41;;;;;;;1.52;0.68;;;;;;;10.38;87.79;99695.66;10195738;28;20047;-68
2023/11/07 06:56:42;;;;;;;2.97;0.70;;;;;;;10.39;87.79;99692.00;10200793;28;20058;-65
2023/11/07 07:01:47;;;;;;;1.50;0.50;;;;;;;10.46;87.86;99708.25;10188525;28;20051;-64
2023/11/07 07:06:49;;;;;;;2.42;0.80;;;;;;;10.52;87.69;99696.25;10189063;28;20051;-65
2023/11/07 07:11:51;;;;;;;2.13;0.90;;;;;;;10.57;87.52;99700.19;10203468;28;20773;-65
2023/11/07 07:16:52;;;;;;;3.10;0.73;;;;;;;10.63;87.10;99697.94;10203470;28;20047;-67
2023/11/07 07:21:55;;;;;;;3.33;1.02;;;;;;;10.71;86.67;99700.78;10187981;28;20067;-65
2023/11/07 07:26:57;;;;;;;3.25;0.40;;;;;;;10.60;86.37;99721.19;10187742;28;20047;-67
2023/11/07 07:31:59;;;;;;;2.92;0.93;;;;;;;10.52;87.24;99723.69;10196279;28;20055;-68
2023/11/07 07:37:01;;;;;;;2.47;0.77;;;;;;;10.49;87.40;99723.94;10189625;28;20050;-65
2023/11/07 07:42:09;;;;;;;3.05;0.75;;;;;;;10.47;87.61;99715.28;10187779;28;20104;-66
2023/11/07 07:47:11;;;;;;;2.42;1.10;;;;;;;10.48;87.46;99721.44;10186042;28;20146;-67
2023/11/07 07:52:13;;;;;;;3.58;0.80;;;;;;;10.39;88.07;99725.78;10182998;28;20075;-67
2023/11/07 07:57:17;;;;;;;3.90;1.27;;;;;;;10.33;88.33;99723.59;10195728;28;20077;-69
2023/11/07 08:02:19;;;;;;;3.63;0.80;;;;;;;10.42;88.29;99721.00;10209046;28;20051;-67
2023/11/07 08:07:22;;;;;;;2.92;0.98;;;;;;;10.49;88.44;99731.94;10186381;28;20063;-66
2023/11/07 08:12:27;;;;;;;;;;;;;;;10.49;88.18;99731.09;10194708;28;20151;-66
2023/11/07 08:17:29;;;;;;;3.38;0.80;;;;;;;10.53;87.76;99724.53;10198003;28;19968;-66
2023/11/07 08:22:30;;;;;;;2.63;1.10;;;;;;;10.56;87.65;99725.09;10183846;28;20050;-66
2023/11/07 08:27:33;;;;;;;3.70;1.10;;;;;;;10.56;87.84;99730.44;10191162;28;20051;-67
2023/11/07 08:32:34;;;;;;;1.70;0.47;;;;;;;10.63;87.65;99738.72;10188838;28;20737;-67
2023/11/07 08:37:36;;;;;;;2.75;1.00;;;;;;;10.70;87.67;99731.03;10191780;28;20158;-67
2023/11/07 08:42:43;;;;;;;1.92;0.70;;;;;;;10.69;87.57;99730.19;10185960;28;20113;-68
2023/11/07 08:47:48;;;;;;;3.13;0.95;;;;;;;10.76;87.53;99730.47;10185789;28;20501;-68
2023/11/07 08:52:50;;;;;;;1.83;0.60;;;;;;;10.77;87.18;99737.47;10192959;28;20094;-67
2023/11/07 08:57:52;;;;;;;2.28;0.30;;;;;;;10.80;87.40;99737.22;10192167;28;20055;-67
2023/11/07 09:02:54;;;;;;;1.23;0.50;;;;;;;10.83;88.49;99731.59;10189408;28;20058;-69
2023/11/07 09:07:56;;;;;;;3.05;0.43;;;;;;;10.84;88.80;99737.75;10179701;28;20185;-67
2023/11/07 09:12:57;;;;;;;0.88;0.35;;;;;;;10.85;90.02;99750.09;10180183;28;20066;-66
2023/11/07 09:17:59;;;;;;;1.30;0.70;;;;;;;10.73;90.88;99733.41;10195345;28;20123;-70
2023/11/07 09:23:01;;;;;;;2.25;0.52;;;;;;;10.75;90.37;99728.81;10197391;28;20066;-69
2023/11/07 09:28:04;;;;;;;2.97;0.63;;;;;;;10.98;90.48;99753.34;10193495;28;20178;-68
2023/11/07 09:33:06;;;;;;;1.17;0.40;;;;;;;10.88;88.96;99755.97;10187683;28;20051;-68
2023/11/07 09:38:11;;;;;;;1.77;0.70;;;;;;;10.88;89.58;99761.31;10193636;28;20056;-68
2023/11/07 09:43:16;;;;;;;2.88;0.50;;;;;;;10.92;88.86;99762.72;10194314;28;20138;-67
2023/11/07 09:48:21;;;;;;;3.53;0.60;;;;;;;10.90;89.09;99770.03;10192171;28;20429;-68
2023/11/07 09:53:24;;;;;;;2.20;0.90;;;;;;;10.94;89.31;99754.59;10194551;28;20062;-67
2023/11/07 09:58:29;;;;;;;3.03;0.63;;;;;;;11.01;88.95;99754.91;10199421;28;20063;-69
2023/11/07 10:03:33;;;;;;;1.80;0.40;;;;;;;11.01;89.02;99760.22;10203014;28;20692;-66
2023/11/07 10:08:35;;;;;;;0.60;0.25;;;;;;;11.03;88.05;99755.59;10194112;28;20051;-67
2023/11/07 10:13:38;;;;;;;3.08;0.40;;;;;;;11.03;88.52;99761.75;10189991;28;20059;-69
2023/11/07 10:18:49;;;;;;;1.58;0.68;;;;;;;11.02;88.88;99767.22;10189918;28;20692;-67
2023/11/07 10:23:54;;;;;;;2.00;0.80;;;;;;;10.97;88.63;99756.97;10195693;28;20063;-67
2023/11/07 10:29:13;;;;;;;3.25;0.63;;;;;;;10.99;89.10;99751.50;10173388;28;20073;-68
2023/11/07 10:34:20;;;;;;;2.38;0.38;;;;;;;10.94;88.10;99771.44;10209972;28;20119;-67
2023/11/07 10:39:25;;;;;;;1.45;0.50;;;;;;;10.97;88.30;99764.97;10202898;28;20066;-66
2023/11/07 10:44:29;;;;;;;2.35;0.57;;;;;;;10.97;89.42;99759.66;10172490;28;20083;-67
2023/11/07 10:49:31;;;;;;;2.83;0.55;;;;;;;11.04;89.78;99766.09;10198180;28;20055;-67
2023/11/07 10:54:33;;;;;;;0.63;0.30;;;;;;;11.00;90.81;99758.53;10197146;28;20255;-67
2023/11/07 10:59:44;;;;;;;0.80;0.20;;;;;;;10.95;90.88;99761.63;10187464;28;20107;-66
2023/11/07 11:04:48;;;;;;;0.88;0.38;;;;;;;10.98;92.09;99756.00;10203812;28;20532;-66
2023/11/07 11:09:50;;;;;;;2.93;2.27;;;;;;;11.08;92.80;99756.00;10191379;28;20074;-66
2023/11/07 11:14:52;;;;;;;1.77;0.50;;;;;;;11.08;92.98;99758.66;10188512;28;20866;-66
2023/11/07 11:20:02;;;;;;;2.38;0.60;;;;;;;11.11;93.20;99758.41;10195100;28;20043;-67
2023/11/07 11:25:20;;;;;;;1.73;0.80;;;;;;;11.11;93.70;99753.09;10196112;28;20047;-66
2023/11/07 11:30:37;;;;;;;2.45;0.57;;;;;;;11.04;94.40;99751.97;10191101;28;20601;-68
2023/11/07 11:35:41;;;;;;;1.77;0.40;;;;;;;11.06;95.30;99753.47;10191533;28;20086;-67
2023/11/07 11:40:53;;;;;;;1.00;0.50;;;;;;;11.08;94.85;99748.00;10192596;28;20055;-67
2023/11/07 11:45:58;;;;;;;1.63;0.60;;;;;;;11.09;95.77;99747.03;10189913;28;20416;-68
2023/11/07 11:51:36;;;;;;;1.00;0.50;;;;;;;11.14;94.82;99744.81;10194516;28;20064;-66
2023/11/07 11:56:50;;;;;;;2.28;0.55;;;;;;;11.27;95.10;99749.84;10184367;28;20055;-67
2023/11/07 12:01:53;;;;;;;1.52;0.60;;;;;;;11.35;94.42;99736.69;10191862;28;20047;-65
2023/11/07 12:07:14;;;;;;;1.45;0.75;;;;;;;11.27;95.12;99740.06;10197608;28;20067;-66
2023/11/07 12:12:17;;;;;;;1.38;0.63;;;;;;;11.29;95.28;99732.75;10191023;28;20142;-66
2023/11/07 12:17:23;;;;;;;3.03;0.80;;;;;;;11.44;94.50;99729.63;10197547;28;20087;-65
2023/11/07 12:22:27;;;;;;;0.98;0.63;;;;;;;11.51;93.68;99733.44;10191559;28;20624;-65
2023/11/07 12:27:28;;;;;;;1.73;0.80;;;;;;;11.56;93.18;99728.53;10191695;28;20090;-65
2023/11/07 12:32:29;;;;;;;1.27;0.60;;;;;;;11.72;92.45;99721.75;10208991;28;20074;-66
2023/11/07 12:37:31;;;;;;;1.23;0.45;;;;;;;11.84;91.00;99715.25;10189073;28;20183;-67
2023/11/07 12:42:35;;;;;;;2.10;0.63;;;;;;;11.79;91.01;99717.53;10192278;28;20663;-67
2023/11/07 12:47:36;;;;;;;0.63;0.10;;;;;;;11.79;90.11;99701.53;10188041;28;20604;-67
2023/11/07 12:52:42;;;;;;;2.03;0.57;;;;;;;11.72;89.88;99705.75;10206673;28;20069;-67
2023/11/07 12:57:49;;;;;;;0.70;0.45;;;;;;;11.61;89.43;99720.09;10184172;28;20063;-66
2023/11/07 13:02:55;;;;;;;1.25;0.77;;;;;;;11.53;92.11;99719.97;10200294;28;20138;-66
2023/11/07 13:07:57;;;;;;;2.83;1.10;;;;;;;11.58;94.75;99702.56;10197138;28;20123;-65
2023/11/07 13:12:59;;;;;;;0.88;0.50;;;;;;;11.76;93.50;99712.50;10189744;28;20054;-66
2023/11/07 13:18:02;;;;;;;1.23;1.13;;;;;;;13.63;87.86;99713.03;10203665;28;20496;-66
2023/11/07 13:23:03;;;;;;;1.10;0.30;;;;;;;14.77;74.42;99702.06;10196505;28;20054;-68
2023/11/07 13:28:05;;;;;;;2.40;0.93;;;;;;;13.67;79.59;99704.53;10198086;28;20659;-65
2023/11/07 13:33:08;;;;;;;0.73;0.43;;;;;;;13.82;80.36;99702.13;10192337;28;20079;-65
2023/11/07 13:38:10;;;;;;;0.90;0.25;;;;;;;14.42;76.16;99709.28;10196249;28;20061;-66
2023/11/07 13:43:13;;;;;;;0.80;0.50;;;;;;;14.03;74.71;99707.09;10190835;28;20047;-66
2023/11/07 13:48:16;;;;;;;0.90;0.30;;;;;;;13.38;75.09;99710.19;10191710;28;20083;-67
2023/11/07 13:53:19;;;;;;;1.20;0.30;;;;;;;13.06;74.44;99707.06;10186099;28;20107;-66
2023/11/07 13:58:20;;;;;;;1.42;0.20;;;;;;;12.49;74.43;99711.78;10207457;28;20510;-65
2023/11/07 14:03:22;;;;;;;0.43;0.10;;;;;;;12.34;76.26;99730.97;10191753;28;20062;-67
2023/11/07 14:08:25;;;;;;;1.10;0.20;;;;;;;12.17;74.93;99731.75;10197453;28;20051;-65
2023/11/07 14:13:27;;;;;;;0.80;0.20;;;;;;;12.13;76.91;99719.69;10192584;28;20059;-66
2023/11/07 14:18:30;;;;;;;0.70;0.15;;;;;;;12.17;75.11;99723.75;10202495;28;20313;-66
2023/11/07 14:23:35;;;;;;;0.90;0.30;;;;;;;12.54;74.90;99712.19;10194940;28;20054;-66
2023/11/07 14:28:39;;;;;;;1.05;0.20;;;;;;;14.04;72.25;99727.50;10207496;28;20102;-68
2023/11/07 14:33:59;;;;;;;1.13;0.38;;;;;;;14.49;70.09;99737.09;10201869;28;20124;-67
2023/11/07 14:39:03;;;;;;;0.40;0.17;;;;;;;13.57;70.72;99741.22;10196027;28;20071;-66
2023/11/07 14:44:05;;;;;;;2.10;0.50;;;;;;;13.05;73.42;99736.59;10198393;28;20063;-67
2023/11/07 14:49:07;;;;;;;2.03;0.28;;;;;;;13.38;68.17;99747.63;10191411;28;20134;-66
2023/11/07 14:54:13;;;;;;;1.30;0.70;;;;;;;13.06;69.73;99749.81;10203548;28;20081;-67
2023/11/07 14:59:15;;;;;;;0.95;0.30;;;;;;;12.69;69.08;99742.72;10204044;28;20046;-64
2023/11/07 15:04:17;;;;;;;0.88;0.30;;;;;;;12.48;70.65;99745.66;10199093;28;20573;-68
2023/11/07 15:09:19;;;;;;;1.60;0.50;;;;;;;12.36;71.16;99749.50;10192811;28;20066;-66
2023/11/07 15:14:21;;;;;;;2.08;0.50;;;;;;;12.24;70.04;99759.53;10192552;28;20106;-67
2023/11/07 15:19:22;;;;;;;2.30;0.80;;;;;;;12.11;70.62;99748.34;10190175;28;20166;-67
2023/11/07 15:24:25;;;;;;;1.58;0.20;;;;;;;12.02;72.16;99760.72;10195671;28;20722;-68
2023/11/07 15:29:27;;;;;;;0.73;0.20;;;;;;;12.02;71.59;99764.25;10189969;28;20125;-68
2023/11/07 15:34:28;;;;;;;2.15;0.30;;;;;;;11.95;72.63;99781.81;10188221;28;20059;-68
2023/11/07 15:39:30;;;;;;;1.25;0.50;;;;;;;11.88;73.53;99771.84;10189260;28;20841;-68
2023/11/07 15:44:32;;;;;;;2.47;1.08;;;;;;;11.94;72.78;99785.44;10188842;28;20065;-68
2023/11/07 15:49:33;;;;;;;1.25;0.50;;;;;;;11.83;71.74;99783.75;10192601;28;20047;-67
2023/11/07 15:54:36;;;;;;;1.45;0.73;;;;;;;11.76;70.59;99787.97;10183097;28;20683;-67
2023/11/07 15:59:37;;;;;;;3.45;0.55;;;;;;;11.79;71.21;99797.53;10190685;28;20544;-67
2023/11/07 16:04:39;;;;;;;1.73;0.60;;;;;;;11.80;71.58;99804.53;10191581;28;20146;-68
2023/11/07 16:09:40;;;;;;;3.35;0.60;;;;;;;11.74;71.54;99797.09;10190337;28;20055;-67
2023/11/07 16:14:42;;;;;;;0.98;0.47;;;;;;;11.72;71.86;99801.75;10186100;28;20050;-67
2023/11/07 16:19:44;;;;;;;2.05;0.75;;;;;;;11.67;71.15;99799.50;10197321;28;20954;-67
2023/11/07 16:24:48;;;;;;;4.07;0.80;;;;;;;11.56;71.01;99805.81;10195953;28;20163;-68
2023/11/07 16:29:54;;;;;;;4.25;0.95;;;;;;;11.55;71.49;99820.13;10199830;28;20055;-67
2023/11/07 16:34:56;;;;;;;1.35;0.60;;;;;;;11.49;72.44;99818.03;10194516;28;20488;-68
2023/11/07 16:39:58;;;;;;;2.92;1.10;;;;;;;11.55;72.78;99825.47;10198891;28;20653;-69
2023/11/07 16:45:00;;;;;;;2.78;1.17;;;;;;;11.54;72.42;99829.09;10192666;28;20059;-70
2023/11/07 16:50:04;;;;;;;4.63;1.38;;;;;;;11.45;73.32;99833.47;10193160;28;20142;-68
2023/11/07 16:55:08;;;;;;;1.45;0.60;;;;;;;11.41;72.88;99847.19;10196139;28;20055;-68
2023/11/07 17:00:12;;;;;;;2.55;0.80;;;;;;;11.29;73.68;99838.50;10196499;28;20051;-69
2023/11/07 17:05:15;;;;;;;2.17;0.93;;;;;;;11.28;73.46;99850.97;10208362;28;20187;-68
2023/11/07 17:10:17;;;;;;;2.42;0.70;;;;;;;11.29;73.43;99860.66;10195458;28;20047;-69
2023/11/07 17:15:20;;;;;;;1.48;0.70;;;;;;;11.30;73.76;99862.34;10196282;28;20055;-68
2023/11/07 17:20:21;;;;;;;4.95;0.90;;;;;;;11.21;73.54;99868.47;10198121;28;20508;-67
2023/11/07 17:25:27;;;;;;;3.20;1.47;;;;;;;11.18;73.85;99879.41;10208782;28;20477;-67
2023/11/07 17:30:29;;;;;;;5.25;1.20;;;;;;;11.13;73.33;99876.31;10194812;28;20050;-69
2023/11/07 17:35:31;;;;;;;2.42;0.98;;;;;;;11.05;73.88;99881.47;10195554;28;20532;-67
2023/11/07 17:40:34;;;;;;;1.77;1.05;;;;;;;10.95;74.05;99879.63;10195477;28;20551;-67
2023/11/07 17:45:36;;;;;;;3.80;1.80;;;;;;;10.99;73.96;99895.31;10193401;28;20066;-67
2023/11/07 17:50:38;;;;;;;2.88;1.60;;;;;;;10.90;73.93;99903.16;10191885;28;20043;-67
2023/11/07 17:55:40;;;;;;;2.95;1.55;;;;;;;10.80;74.01;99896.94;10190974;28;20054;-67
2023/11/07 18:00:44;;;;;;;4.22;1.08;;;;;;;10.73;74.47;99901.13;10191307;28;20051;-68
2023/11/07 18:05:45;;;;;;;4.53;1.55;;;;;;;10.67;74.87;99906.97;10192229;28;20051;-68
2023/11/07 18:10:48;;;;;;;4.68;1.52;;;;;;;10.73;75.11;99906.44;10190250;28;20520;-67
2023/11/07 18:15:49;;;;;;;3.72;1.98;;;;;;;10.66;74.81;99916.78;10189674;28;20059;-67
2023/11/07 18:20:51;;;;;;;3.95;1.30;;;;;;;10.61;75.20;99913.66;10192176;28;20051;-67
2023/11/07 18:25:55;;;;;;;4.30;1.48;;;;;;;10.44;75.89;99918.59;10186322;28;20157;-67
2023/11/07 18:30:59;;;;;;;3.17;1.13;;;;;;;10.48;76.47;99923.66;10166096;28;20051;-68
2023/11/07 18:36:05;;;;;;;4.03;1.33;;;;;;;10.33;76.81;99931.09;10187123;28;20082;-69
2023/11/07 18:41:07;;;;;;;2.85;1.23;;;;;;;10.30;77.26;99937.56;10185746;28;20058;-67
2023/11/07 18:46:12;;;;;;;2.40;1.47;;;;;;;10.33;77.62;99944.41;10192418;28;20509;-67
2023/11/07 18:51:13;;;;;;;4.47;2.33;;;;;;;10.19;77.59;99937.59;10190564;28;20059;-67
2023/11/07 18:56:15;;;;;;;4.00;1.65;;;;;;;10.20;78.03;99929.50;10195482;28;20135;-67
2023/11/07 19:01:16;;;;;;;6.85;2.20;;;;;;;10.31;77.50;99939.22;10169674;28;20677;-66
2023/11/07 19:06:21;;;;;;;3.05;1.48;;;;;;;10.31;77.37;99939.22;10190810;28;20050;-67
2023/11/07 19:11:22;;;;;;;3.35;1.55;;;;;;;10.19;77.71;99941.13;10192623;28;20066;-66
2023/11/07 19:16:24;;;;;;;3.80;1.95;;;;;;;10.19;77.86;99940.25;10184267;28;20119;-65
2023/11/07 19:21:28;;;;;;;5.80;1.33;;;;;;;10.14;78.35;99943.31;10198155;28;20191;-67
2023/11/07 19:26:29;;;;;;;3.08;1.33;;;;;;;10.02;78.68;99942.50;10202976;28;20070;-67
2023/11/07 19:31:34;;;;;;;2.90;1.08;;;;;;;10.06;79.31;99948.44;10217307;28;20070;-67
2023/11/07 19:36:38;;;;;;;5.25;1.20;;;;;;;10.06;79.59;99961.72;10193869;28;20858;-66
2023/11/07 19:41:40;;;;;;;2.90;1.10;;;;;;;10.10;79.59;99963.13;10198994;28;20050;-67
2023/11/07 19:46:41;;;;;;;2.67;1.60;;;;;;;10.09;79.49;99961.47;10189564;28;20577;-68
2023/11/07 19:51:45;;;;;;;5.03;1.40;;;;;;;10.03;79.89;99962.81;10184880;28;20141;-68
2023/11/07 19:56:47;;;;;;;5.32;1.95;;;;;;;10.03;79.84;99964.66;10186350;28;20769;-68
2023/11/07 20:01:49;;;;;;;3.53;1.67;;;;;;;10.01;79.85;99974.53;10190179;28;20075;-67
2023/11/07 20:06:50;;;;;;;4.78;1.10;;;;;;;9.81;80.38;99965.56;10191103;28;20154;-67
2023/11/07 20:11:51;;;;;;;6.88;1.73;;;;;;;9.83;80.64;99972.44;10190009;28;20054;-67
2023/11/07 20:16:54;;;;;;;6.80;2.10;;;;;;;9.82;80.64;99968.09;10193883;28;20049;-67
2023/11/07 20:21:56;;;;;;;3.75;2.15;;;;;;;9.72;81.22;99965.31;10175385;28;20535;-68
2023/11/07 20:26:58;;;;;;;3.63;1.52;;;;;;;9.61;81.89;99968.03;10187452;28;20127;-68
2023/11/07 20:32:00;;;;;;;2.55;1.45;;;;;;;9.70;81.53;99966.44;10180520;28;20064;-67
2023/11/07 20:37:02;;;;;;;3.08;1.92;;;;;;;9.74;81.14;99973.19;10170128;28;20077;-65
2023/11/07 20:42:06;;;;;;;6.13;1.35;;;;;;;9.71;81.58;99987.59;10190890;28;20146;-67
2023/11/07 20:47:10;;;;;;;2.15;1.27;;;;;;;9.70;81.68;99977.06;10183212;28;20058;-66
2023/11/07 20:52:13;;;;;;;4.93;1.20;;;;;;;9.65;81.67;99984.56;10203099;28;20589;-68
2023/11/07 20:57:27;;;;;;;;;;;;;;;9.60;81.76;99981.44;10181926;28;20090;-66
2023/11/07 21:02:31;;;;;;;4.85;1.45;;;;;;;9.63;81.74;99986.50;10192721;28;19926;-65
2023/11/07 21:07:33;;;;;;;5.15;1.40;;;;;;;9.62;81.79;99995.44;10196987;28;20055;-67
2023/11/07 21:12:36;;;;;;;4.22;1.20;;;;;;;9.67;81.63;99982.66;10192988;28;20106;-67
2023/11/07 21:17:40;;;;;;;4.78;1.67;;;;;;;9.57;81.80;99987.84;10190734;28;20406;-69
2023/11/07 21:22:46;;;;;;;2.55;1.20;;;;;;;9.49;81.91;99972.53;10188603;28;20078;-67
2023/11/07 21:27:47;;;;;;;2.80;1.30;;;;;;;9.49;82.21;99987.63;10192468;28;20191;-66
2023/11/07 21:32:48;;;;;;;3.08;1.20;;;;;;;9.44;82.52;99987.97;10200753;28;20545;-67
2023/11/07 21:37:50;;;;;;;3.63;1.08;;;;;;;9.47;82.44;99978.91;10193262;28;20520;-66
2023/11/07 21:43:00;;;;;;;6.50;1.75;;;;;;;9.34;83.11;99977.25;10197504;28;20083;-66
2023/11/07 21:48:04;;;;;;;3.55;1.10;;;;;;;9.38;82.97;99983.16;10195759;28;20149;-65
2023/11/07 21:53:06;;;;;;;5.00;1.43;;;;;;;9.40;82.69;99989.19;10190179;28;20674;-68
2023/11/07 21:58:07;;;;;;;4.38;1.15;;;;;;;9.46;83.02;99993.19;10192785;28;20510;-66
2023/11/07 22:03:11;;;;;;;5.97;2.67;;;;;;;9.48;82.48;99994.72;10192188;28;20111;-65
2023/11/07 22:08:13;;;;;;;5.38;1.35;;;;;;;9.54;82.13;99980.94;10190825;28;20067;-67
2023/11/07 22:13:16;;;;;;;3.10;1.50;;;;;;;9.46;82.34;99980.75;10190359;28;20125;-68
2023/11/07 22:18:18;;;;;;;4.22;1.35;;;;;;;9.42;82.65;99979.28;10190927;28;20048;-66
2023/11/07 22:23:20;;;;;;;5.72;1.77;;;;;;;9.38;82.91;99976.03;10192485;28;20567;-69
2023/11/07 22:28:21;;;;;;;4.95;2.10;;;;;;;9.41;82.56;99982.91;10194812;28;20057;-68
2023/11/07 22:33:23;;;;;;;4.30;1.35;;;;;;;9.49;82.44;99983.16;10189702;28;20059;-64
2023/11/07 22:38:26;;;;;;;7.10;1.70;;;;;;;9.38;82.60;99996.44;10191795;28;21094;-66
2023/11/07 22:43:29;;;;;;;5.43;1.45;;;;;;;9.42;82.05;100010.34;10201576;28;20060;-66
2023/11/07 22:48:30;;;;;;;4.43;1.52;;;;;;;9.37;82.17;100003.56;10194429;28;20061;-67
2023/11/07 22:53:33;;;;;;;4.55;1.58;;;;;;;9.43;82.31;100004.91;10196545;28;20656;-66
2023/11/07 22:58:37;;;;;;;4.15;0.98;;;;;;;9.48;82.22;100009.84;10193070;28;20047;-66
2023/11/07 23:03:38;;;;;;;2.75;1.40;;;;;;;9.43;81.83;100004.91;10188445;28;20134;-65
2023/11/07 23:08:41;;;;;;;5.13;1.50;;;;;;;9.39;81.62;99995.47;10193104;28;20051;-65
2023/11/07 23:13:43;;;;;;;4.05;1.55;;;;;;;9.48;82.37;100010.69;10212192;28;20719;-66
2023/11/07 23:18:45;;;;;;;3.65;1.35;;;;;;;9.50;81.78;100008.75;10199550;28;20122;-66
2023/11/07 23:23:46;;;;;;;7.85;2.53;;;;;;;9.54;82.00;100002.22;10206820;28;20059;-66
2023/11/07 23:28:47;;;;;;;9.85;2.22;;;;;;;9.55;81.62;99995.94;10201212;28;20102;-66
2023/11/07 23:33:49;;;;;;;4.57;1.55;;;;;;;9.54;81.22;100004.88;10215185;28;21447;-66